Map

Track Data

SID SEASON NUMBER BASIN SUBBASIN NAME ISO_TIME NATURE LAT LON WMO_WIND WMO_PRES WMO_AGENCY TRACK_TYPE DIST2LAND LANDFALL IFLAG USA_AGENCY USA_ATCF_ID USA_LAT USA_LON USA_RECORD USA_STATUS USA_WIND USA_PRES USA_SSHS USA_R34_NE USA_R34_SE USA_R34_SW USA_R34_NW USA_R50_NE USA_R50_SE USA_R50_SW USA_R50_NW USA_R64_NE USA_R64_SE USA_R64_SW USA_R64_NW USA_POCI USA_ROCI USA_RMW USA_EYE TOKYO_LAT TOKYO_LON TOKYO_GRADE TOKYO_WIND TOKYO_PRES TOKYO_R50_DIR TOKYO_R50_LONG TOKYO_R50_SHORT TOKYO_R30_DIR TOKYO_R30_LONG TOKYO_R30_SHORT TOKYO_LAND CMA_LAT CMA_LON CMA_CAT CMA_WIND CMA_PRES HKO_LAT HKO_LON HKO_CAT HKO_WIND HKO_PRES NEWDELHI_LAT NEWDELHI_LON NEWDELHI_GRADE NEWDELHI_WIND NEWDELHI_PRES NEWDELHI_CI NEWDELHI_DP NEWDELHI_POCI REUNION_LAT REUNION_LON REUNION_TYPE REUNION_WIND REUNION_PRES REUNION_TNUM REUNION_CI REUNION_RMW REUNION_R34_NE REUNION_R34_SE REUNION_R34_SW REUNION_R34_NW REUNION_R50_NE REUNION_R50_SE REUNION_R50_SW REUNION_R50_NW REUNION_R64_NE REUNION_R64_SE REUNION_R64_SW REUNION_R64_NW BOM_LAT BOM_LON BOM_TYPE BOM_WIND BOM_PRES BOM_TNUM BOM_CI BOM_RMW BOM_R34_NE BOM_R34_SE BOM_R34_SW BOM_R34_NW BOM_R50_NE BOM_R50_SE BOM_R50_SW BOM_R50_NW BOM_R64_NE BOM_R64_SE BOM_R64_SW BOM_R64_NW BOM_ROCI BOM_POCI BOM_EYE BOM_POS_METHOD BOM_PRES_METHOD NADI_LAT NADI_LON NADI_CAT NADI_WIND NADI_PRES WELLINGTON_LAT WELLINGTON_LON WELLINGTON_WIND WELLINGTON_PRES DS824_LAT DS824_LON DS824_STAGE DS824_WIND DS824_PRES TD9636_LAT TD9636_LON TD9636_STAGE TD9636_WIND TD9636_PRES TD9635_LAT TD9635_LON TD9635_WIND TD9635_PRES TD9635_ROCI NEUMANN_LAT NEUMANN_LON NEUMANN_CLASS NEUMANN_WIND NEUMANN_PRES MLC_LAT MLC_LON MLC_CLASS MLC_WIND MLC_PRES USA_GUST BOM_GUST BOM_GUST_PER REUNION_GUST REUNION_GUST_PER USA_SEAHGT USA_SEARAD_NE USA_SEARAD_SE USA_SEARAD_SW USA_SEARAD_NW STORM_SPEED STORM_DIR
1987249N15329 1987 72 NA NA CINDY 1987-09-05 12:00:00 TS 15.2000 -31.3000 25 1011 hurdat_atl main 1484 1484 O_____________ hurdat_atl AL071987 15.2000 -31.3000 TD 25 1011 -1 12 312
1987249N15329 1987 72 NA NA CINDY 1987-09-05 15:00:00 TS 15.5952 -31.7546 main 1538 1538 P_____________ AL071987 15.5952 -31.7546 TD 27 1010 -1 12 313
1987249N15329 1987 72 NA NA CINDY 1987-09-05 18:00:00 TS 16.0000 -32.2000 30 1009 hurdat_atl main 1583 1583 O_____________ hurdat_atl AL071987 16.0000 -32.2000 TD 30 1009 -1 12 315
1987249N15329 1987 72 NA NA CINDY 1987-09-05 21:00:00 TS 16.4273 -32.6354 main 1628 1628 P_____________ AL071987 16.4273 -32.6354 TD 30 1009 -1 13 316
1987249N15329 1987 72 NA NA CINDY 1987-09-06 00:00:00 TS 16.9000 -33.1000 30 1009 hurdat_atl main 1687 1687 O_____________ hurdat_atl AL071987 16.9000 -33.1000 TD 30 1009 -1 14 317
1987249N15329 1987 72 NA NA CINDY 1987-09-06 03:00:00 TS 17.4500 -33.6349 main 1746 1746 P_____________ AL071987 17.4500 -33.6349 TD 30 1009 -1 15 316
1987249N15329 1987 72 NA NA CINDY 1987-09-06 06:00:00 TS 18.0000 -34.2000 30 1009 hurdat_atl main 1819 1819 O_____________ hurdat_atl AL071987 18.0000 -34.2000 TD 30 1009 -1 15 314
1987249N15329 1987 72 NA NA CINDY 1987-09-06 09:00:00 TS 18.4497 -34.7357 main 1862 1862 P_____________ AL071987 18.4497 -34.7357 TD 30 1009 -1 14 311
1987249N15329 1987 72 NA NA CINDY 1987-09-06 12:00:00 TS 18.9000 -35.3000 30 1009 hurdat_atl main 1914 1914 O_____________ hurdat_atl AL071987 18.9000 -35.3000 TD 30 1009 -1 15 310
1987249N15329 1987 72 NA NA CINDY 1987-09-06 15:00:00 TS 19.4200 -35.9428 main 1968 1968 P_____________ AL071987 19.4200 -35.9428 TD 30 1009 -1 17 312
1987249N15329 1987 72 NA NA CINDY 1987-09-06 18:00:00 TS 20.0000 -36.6000 30 1009 hurdat_atl main 2032 2032 O_____________ hurdat_atl AL071987 20.0000 -36.6000 TD 30 1009 -1 17 314
1987249N15329 1987 72 NA NA CINDY 1987-09-06 21:00:00 TS 20.6125 -37.2377 main 2089 2089 P_____________ AL071987 20.6125 -37.2377 TD 30 1009 -1 17 319
1987249N15329 1987 72 NA NA CINDY 1987-09-07 00:00:00 TS 21.3000 -37.8000 30 1009 hurdat_atl main 2146 2146 O_____________ hurdat_atl AL071987 21.3000 -37.8000 TD 30 1009 -1 17 327
1987249N15329 1987 72 NA NA CINDY 1987-09-07 03:00:00 TS 22.0697 -38.2381 main 2184 2184 P_____________ AL071987 22.0697 -38.2381 TD 30 1008 -1 18 335
1987249N15329 1987 72 NA NA CINDY 1987-09-07 06:00:00 TS 22.9000 -38.6000 30 1008 hurdat_atl main 2222 2221 O_____________ hurdat_atl AL071987 22.9000 -38.6000 TD 30 1008 -1 18 337
1987249N15329 1987 72 NA NA CINDY 1987-09-07 09:00:00 TS 23.7351 -39.0095 main 2262 2262 P_____________ AL071987 23.7351 -39.0095 TD 32 1007 -1 18 339
1987249N15329 1987 72 NA NA CINDY 1987-09-07 12:00:00 TS 24.6000 -39.3000 35 1007 hurdat_atl main 2271 2249 O_____________ hurdat_atl AL071987 24.6000 -39.3000 TS 35 1007 0 18 350
1987249N15329 1987 72 NA NA CINDY 1987-09-07 15:00:00 TS 25.4924 -39.3462 main 2247 2228 P_____________ AL071987 25.4924 -39.3462 TS 37 1005 0 18 1
1987249N15329 1987 72 NA NA CINDY 1987-09-07 18:00:00 TS 26.4000 -39.3000 40 1003 hurdat_atl main 2226 2210 O_____________ hurdat_atl AL071987 26.4000 -39.3000 TS 40 1003 0 18 0
1987249N15329 1987 72 NA NA CINDY 1987-09-07 21:00:00 TS 27.3000 -39.3424 main 2210 2208 P_____________ AL071987 27.3000 -39.3424 TS 42 1001 0 18 357
1987249N15329 1987 72 NA NA CINDY 1987-09-08 00:00:00 TS 28.2000 -39.4000 45 1000 hurdat_atl main 2207 2200 O_____________ hurdat_atl AL071987 28.2000 -39.4000 TS 45 1000 0 19 357
1987249N15329 1987 72 NA NA CINDY 1987-09-08 03:00:00 TS 29.1525 -39.4574 main 2209 2192 P_____________ AL071987 29.1525 -39.4574 TS 45 1000 0 18 357
1987249N15329 1987 72 NA NA CINDY 1987-09-08 06:00:00 TS 30.0000 -39.5000 45 1000 hurdat_atl main 2192 2133 O_____________ hurdat_atl AL071987 30.0000 -39.5000 TS 45 1000 0 15 358
1987249N15329 1987 72 NA NA CINDY 1987-09-08 09:00:00 TS 30.6024 -39.5151 main 2133 2085 P_____________ AL071987 30.6024 -39.5151 TS 45 1000 0 11 0
1987249N15329 1987 72 NA NA CINDY 1987-09-08 12:00:00 TS 31.1000 -39.5000 45 1000 hurdat_atl main 2085 2037 O_____________ hurdat_atl AL071987 31.1000 -39.5000 TS 45 1000 0 11 3
1987249N15329 1987 72 NA NA CINDY 1987-09-08 15:00:00 TS 31.6500 -39.4576 main 2027 1985 P_____________ AL071987 31.6500 -39.4576 TS 42 1001 0 11 5
1987249N15329 1987 72 NA NA CINDY 1987-09-08 18:00:00 TS 32.2000 -39.4000 40 1003 hurdat_atl main 1985 1938 O_____________ hurdat_atl AL071987 32.2000 -39.4000 TS 40 1003 0 11 4
1987249N15329 1987 72 NA NA CINDY 1987-09-08 21:00:00 TS 32.7500 -39.3647 main 1938 1887 P_____________ AL071987 32.7500 -39.3647 TS 37 1004 0 11 5
1987249N15329 1987 72 NA NA CINDY 1987-09-09 00:00:00 TS 33.3000 -39.3000 35 1005 hurdat_atl main 1887 1847 O_____________ hurdat_atl AL071987 33.3000 -39.3000 TS 35 1005 0 11 6
1987249N15329 1987 72 NA NA CINDY 1987-09-09 03:00:00 TS 33.8346 -39.2237 main 1847 1804 P_____________ AL071987 33.8346 -39.2237 TS 35 1005 0 11 13
1987249N15329 1987 72 NA NA CINDY 1987-09-09 06:00:00 TS 34.4000 -39.0000 35 1005 hurdat_atl main 1804 1773 O_____________ hurdat_atl AL071987 34.4000 -39.0000 TS 35 1005 0 13 25
1987249N15329 1987 72 NA NA CINDY 1987-09-09 09:00:00 TS 35.0350 -38.5326 main 1779 1755 P_____________ AL071987 35.0350 -38.5326 TS 35 1006 0 16 35
1987249N15329 1987 72 NA NA CINDY 1987-09-09 12:00:00 TS 35.7000 -37.9000 35 1007 hurdat_atl main 1755 1736 O_____________ hurdat_atl AL071987 35.7000 -37.9000 TS 35 1007 0 17 38
1987249N15329 1987 72 NA NA CINDY 1987-09-09 15:00:00 TS 36.3647 -37.2369 main 1740 1732 P_____________ AL071987 36.3647 -37.2369 TS 35 1007 0 17 41
1987249N15329 1987 72 NA NA CINDY 1987-09-09 18:00:00 TS 37.0000 -36.5000 35 1007 hurdat_atl main 1737 1735 O_____________ hurdat_atl AL071987 37.0000 -36.5000 TS 35 1007 0 17 45
1987249N15329 1987 72 NA NA CINDY 1987-09-09 21:00:00 TS 37.5261 -35.7633 main 1744 1744 P_____________ AL071987 37.5261 -35.7633 TS 35 1007 0 17 49
1987249N15329 1987 72 NA NA CINDY 1987-09-10 00:00:00 TS 38.1000 -34.9000 35 1007 hurdat_atl main 1761 1761 O_____________ hurdat_atl AL071987 38.1000 -34.9000 TS 35 1007 0 21 49
1987249N15329 1987 72 NA NA CINDY 1987-09-10 03:00:00 TS 38.8857 -33.7896 main 1783 1783 P_____________ AL071987 38.8857 -33.7896 TS 35 1007 0 24 48
1987249N15329 1987 72 NA NA CINDY 1987-09-10 06:00:00 TS 39.7000 -32.6000 35 1007 hurdat_atl main 1816 1816 O_____________ hurdat_atl AL071987 39.7000 -32.6000 TS 35 1007 0 23 49
1987249N15329 1987 72 NA NA CINDY 1987-09-10 09:00:00 TS 40.3553 -31.5598 main 1843 1763 P_____________ AL071987 40.3553 -31.5598 TS 35 1007 0 21 51
1987249N15329 1987 72 NA NA CINDY 1987-09-10 12:00:00 TS 41.0000 -30.5000 35 1007 hurdat_atl main 1755 1648 O_____________ hurdat_atl AL071987 41.0000 -30.5000 TS 35 1007 0 22 51
1987249N15329 1987 72 NA NA CINDY 1987-09-10 15:00:00 TS 41.7263 -29.3034 main 1640 1527 P_____________ AL071987 41.7263 -29.3034 TS 35 1006 0 24 51
1987249N15329 1987 72 NA NA CINDY 1987-09-10 18:00:00 ET 42.5000 -28.0000 35 1005 hurdat_atl main 1519 O_____________ hurdat_atl AL071987 42.5000 -28.0000 EX 35 1005 -4 25 51

About IBTrACS Database

This database is a web-friendly format of International Best Track Archive for Climate Stewardship (IBTrACS), a global best track data archive curated by NOAA dating back to 1842.

Updated: 2021-10-08